This is the latest recevied weather packets stored in our database for station/object BV5AB-33. If no packets are shown the sender has not sent any weather packets the latest 10 day(s).
| Time | Temp. | Humidity | Pressure | Rain* | Wind** | Luminosity | Snow |
|---|---|---|---|---|---|---|---|
| 1777702202 | 31.11° C | 52% | 981.1 hPa | 0 mm | - | - | - |
| 1777701603 | 31.11° C | 52% | 981.5 hPa | 0 mm | - | - | - |
| 1777697703 | 31.11° C | 52% | 982 hPa | 0 mm | - | - | - |
| 1777696503 | 31.11° C | 51% | 981.9 hPa | 0 mm | - | - | - |
| 1777694103 | 30.56° C | 52% | 982.4 hPa | 0 mm | - | - | - |
| 1777692303 | 30.56° C | 53% | 982.7 hPa | 0 mm | - | - | - |
| 1777690503 | 29.44° C | 54% | 982.6 hPa | 0 mm | - | - | - |
| 1777689003 | 29.44° C | 54% | 983 hPa | 0 mm | - | - | - |
| 1777688103 | 29.44° C | 54% | 983.1 hPa | 0 mm | - | - | - |
| 1777686903 | 28.89° C | 55% | 983.4 hPa | 0 mm | - | - | - |
| 1777686603 | 28.89° C | 55% | 983.6 hPa | 0 mm | - | - | - |
| 1777683904 | 28.89° C | 57% | 984 hPa | 0 mm | - | - | - |
| 1777683303 | 28.89° C | 58% | 983.8 hPa | 0 mm | - | - | - |
| 1777680903 | 27.78° C | 63% | 984 hPa | 0 mm | - | - | - |
| 1777680604 | 27.22° C | 67% | 983.8 hPa | 0 mm | - | - | - |
| 1777680003 | 26.67° C | 69% | 983.7 hPa | 0 mm | - | - | - |
| 1777679103 | 26.11° C | 70% | 983.9 hPa | 0 mm | - | - | - |
| 1777676703 | 24.44° C | 74% | 983.4 hPa | 0 mm | - | - | - |
| 1777676103 | 24.44° C | 74% | 983.5 hPa | 0 mm | - | - | - |
| 1777675204 | 23.89° C | 74% | 983.4 hPa | 0 mm | - | - | - |
| 1777674304 | 23.89° C | 74% | 983.2 hPa | 0 mm | - | - | - |
| 1777672503 | 23.33° C | 75% | 982.9 hPa | 0 mm | - | - | - |
| 1777671003 | 23.33° C | 76% | 982.8 hPa | 0 mm | - | - | - |
| 1777670703 | 23.33° C | 76% | 982.5 hPa | 0 mm | - | - | - |
| 1777666205 | 23.89° C | 76% | 982.5 hPa | 5.08 mm | - | - | - |
* Rain latest hour (hover to see other rain measurements)
** Current wind speed in m/s (hover to see current wind gust speed)